Time;durP1;ratioP1;P1;durP2;ratioP2;P2;SDS_P1;SDS_P2;PMS_P1;PMS_P2;Temp;Humidity;BMP_temperature;BMP_pressure;BME280_temperature;BME280_humidity;BME280_pressure;Samples;Min_cycle;Max_cycle;Signal;HPM_P1;HPM_P2
2023/01/06 00:00:03;;;;;;;2.73;1.40;;;;;10.90;101375.00;;;;10534159;28;20223;-80
2023/01/06 00:05:06;;;;;;;3.77;1.30;;;;;10.90;101374.00;;;;10534536;28;20192;-80
2023/01/06 00:10:10;;;;;;;2.33;1.20;;;;;10.90;101367.00;;;;10485268;28;20213;-80
2023/01/06 00:15:13;;;;;;;2.13;0.90;;;;;10.90;101355.00;;;;10463549;28;20201;-80
2023/01/06 00:20:14;;;;;;;4.57;1.37;;;;;10.90;101350.00;;;;10492129;28;20277;-80
2023/01/06 00:25:16;;;;;;;3.00;1.00;;;;;10.90;101326.00;;;;10503993;28;20234;-80
2023/01/06 00:30:18;;;;;;;4.77;1.33;;;;;10.90;101334.00;;;;10550401;28;20204;-80
2023/01/06 00:35:20;;;;;;;3.43;1.23;;;;;10.80;101335.00;;;;10510034;28;20613;-80
2023/01/06 00:40:22;;;;;;;5.20;1.13;;;;;10.80;101334.00;;;;10466471;28;20182;-80
2023/01/06 00:45:24;;;;;;;6.10;1.50;;;;;10.80;101350.00;;;;10450092;28;20284;-80
2023/01/06 00:50:26;;;;;;;4.43;1.50;;;;;10.80;101339.00;;;;10433398;28;20252;-80
2023/01/06 00:55:28;;;;;;;5.13;1.10;;;;;10.80;101334.00;;;;10463812;28;20193;-80
2023/01/06 01:00:30;;;;;;;1.60;0.93;;;;;10.80;101327.00;;;;10507320;28;20181;-80
2023/01/06 01:05:33;;;;;;;2.70;1.10;;;;;10.70;101321.00;;;;10507322;28;20189;-80
2023/01/06 01:10:35;;;;;;;2.93;0.90;;;;;10.70;101316.00;;;;10481207;28;20236;-80
2023/01/06 01:15:37;;;;;;;4.70;1.43;;;;;10.70;101315.00;;;;10465124;28;20205;-80
2023/01/06 01:20:39;;;;;;;0.53;0.50;;;;;10.70;101321.00;;;;10448574;28;20645;-81
2023/01/06 01:25:41;;;;;;;3.43;0.80;;;;;10.70;101319.00;;;;10497013;28;20564;-80
2023/01/06 01:30:43;;;;;;;1.53;0.80;;;;;10.70;101316.00;;;;10506166;28;20204;-80
2023/01/06 01:35:45;;;;;;;1.70;0.77;;;;;10.70;101306.00;;;;10497892;28;20220;-80
2023/01/06 01:40:48;;;;;;;4.10;1.50;;;;;10.70;101288.00;;;;10463404;28;20247;-80
2023/01/06 01:45:54;;;;;;;4.17;1.33;;;;;10.70;101285.00;;;;10447563;28;20201;-80
2023/01/06 01:50:58;;;;;;;1.33;0.83;;;;;10.80;101298.00;;;;10463606;28;20212;-80
2023/01/06 01:56:05;;;;;;;3.23;1.50;;;;;10.80;101298.00;;;;10482056;28;20247;-80
2023/01/06 02:01:09;;;;;;;2.10;1.20;;;;;10.80;101302.00;;;;10463127;28;20192;-81
2023/01/06 02:06:16;;;;;;;6.10;1.17;;;;;10.90;101307.00;;;;10471562;28;20552;-80
2023/01/06 02:11:18;;;;;;;2.53;0.80;;;;;10.90;101285.00;;;;10463125;28;20687;-80
2023/01/06 02:16:40;;;;;;;7.67;2.13;;;;;10.90;101279.00;;;;10463053;28;20197;-80
2023/01/06 02:21:47;;;;;;;3.07;0.80;;;;;10.90;101274.00;;;;10468114;28;20203;-80
2023/01/06 02:27:11;;;;;;;3.30;0.90;;;;;10.90;101276.00;;;;10470975;28;20219;-80
2023/01/06 02:32:24;;;;;;;3.17;0.93;;;;;10.80;101261.00;;;;10503608;28;20342;-80
2023/01/06 02:37:51;;;;;;;0.60;0.57;;;;;10.80;101252.00;;;;10490904;28;20259;-81
2023/01/06 02:43:19;;;;;;;1.03;0.73;;;;;10.80;101245.00;;;;10478840;28;20178;-81
2023/01/06 02:48:31;;;;;;;2.03;0.70;;;;;10.80;101256.00;;;;10446469;28;20270;-81
2023/01/06 02:53:48;;;;;;;3.00;0.90;;;;;10.80;101245.00;;;;10487175;28;20192;-80
2023/01/06 02:59:05;;;;;;;3.90;1.10;;;;;10.80;101248.00;;;;10475407;28;20218;-80
2023/01/06 03:04:32;;;;;;;3.27;0.70;;;;;10.80;101242.00;;;;10511350;28;20512;-80
2023/01/06 03:09:36;;;;;;;1.20;0.70;;;;;10.80;101238.00;;;;10528728;28;20212;-80
2023/01/06 03:14:44;;;;;;;3.20;0.83;;;;;10.80;101237.00;;;;10494411;28;20336;-81
2023/01/06 03:19:47;;;;;;;2.20;0.87;;;;;10.80;101250.00;;;;10494085;28;20187;-80
2023/01/06 03:24:52;;;;;;;4.80;1.10;;;;;10.80;101241.00;;;;10501348;28;20239;-80
2023/01/06 03:29:57;;;;;;;4.10;1.00;;;;;10.80;101240.00;;;;10452772;28;20244;-80
2023/01/06 03:35:32;;;;;;;1.10;1.00;;;;;10.80;101243.00;;;;10469192;28;20752;-80
2023/01/06 03:40:43;;;;;;;4.07;0.90;;;;;10.80;101239.00;;;;10468598;28;20268;-80
2023/01/06 03:46:15;;;;;;;3.70;2.07;;;;;10.70;101233.00;;;;10452533;28;20201;-81
2023/01/06 03:51:42;;;;;;;2.53;0.90;;;;;10.70;101205.00;;;;10501947;28;20209;-80
2023/01/06 03:56:59;;;;;;;1.63;0.70;;;;;10.70;101211.00;;;;10516399;28;20199;-80
2023/01/06 04:02:04;;;;;;;3.50;1.07;;;;;10.60;101195.00;;;;10508774;28;20185;-80
2023/01/06 04:07:07;;;;;;;1.10;0.90;;;;;10.60;101185.00;;;;10509714;28;20193;-80
2023/01/06 04:17:34;;;;;;;1.90;0.80;;;;;10.60;101184.00;;;;10491909;28;20852;-80
2023/01/06 04:22:36;;;;;;;1.87;0.60;;;;;10.50;101192.00;;;;10511103;28;20192;-80
2023/01/06 04:27:38;;;;;;;0.73;0.50;;;;;10.50;101189.00;;;;10477494;28;20252;-80
2023/01/06 04:32:41;;;;;;;2.87;0.60;;;;;10.50;101176.00;;;;10486334;28;20214;-80
2023/01/06 04:37:43;;;;;;;1.03;0.70;;;;;10.50;101176.00;;;;10482214;28;20649;-80
2023/01/06 04:43:03;;;;;;;1.47;0.60;;;;;10.40;101164.00;;;;10512001;28;20181;-80
2023/01/06 04:48:06;;;;;;;2.53;0.53;;;;;10.40;101160.00;;;;10501798;28;20715;-81
2023/01/06 04:53:10;;;;;;;1.93;0.70;;;;;10.30;101144.00;;;;10537733;28;20212;-81
2023/01/06 04:58:12;;;;;;;3.33;0.90;;;;;10.10;101147.00;;;;10453259;28;20198;-80
2023/01/06 05:03:14;;;;;;;2.10;0.70;;;;;10.10;101146.00;;;;10483101;28;20186;-80
2023/01/06 05:08:16;;;;;;;1.33;0.50;;;;;10.10;101147.00;;;;10473516;28;20208;-80
2023/01/06 05:13:17;;;;;;;1.17;0.60;;;;;10.20;101148.00;;;;10444385;28;20209;-80
2023/01/06 05:18:19;;;;;;;1.23;0.60;;;;;10.30;101145.00;;;;10481376;28;20244;-80
2023/01/06 05:23:21;;;;;;;1.30;0.77;;;;;10.40;101148.00;;;;10466002;28;20202;-80
2023/01/06 05:28:23;;;;;;;2.40;0.80;;;;;10.50;101155.00;;;;10480663;28;20271;-80
2023/01/06 05:33:25;;;;;;;1.50;0.57;;;;;10.50;101164.00;;;;10521804;28;20185;-80
2023/01/06 05:38:28;;;;;;;1.23;0.90;;;;;10.50;101162.00;;;;10496635;28;20223;-80
2023/01/06 05:43:32;;;;;;;1.67;0.80;;;;;10.60;101164.00;;;;10432057;28;20666;-80
2023/01/06 05:48:35;;;;;;;2.70;0.90;;;;;10.70;101159.00;;;;10448027;28;20212;-80
2023/01/06 05:53:40;;;;;;;1.07;0.80;;;;;10.80;101151.00;;;;10490423;28;20235;-80
2023/01/06 05:58:46;;;;;;;3.20;0.90;;;;;10.80;101158.00;;;;10464229;28;20284;-80
2023/01/06 06:03:49;;;;;;;0.67;0.67;;;;;10.90;101144.00;;;;10464052;28;20272;-80
2023/01/06 06:08:51;;;;;;;0.77;0.53;;;;;10.90;101143.00;;;;10463978;28;20255;-80
2023/01/06 06:13:54;;;;;;;2.00;0.87;;;;;10.90;101152.00;;;;10487913;28;20201;-80
2023/01/06 06:18:57;;;;;;;0.80;0.53;;;;;10.90;101152.00;;;;10479686;28;20284;-80
2023/01/06 06:23:59;;;;;;;1.10;0.43;;;;;10.90;101141.00;;;;10501258;28;20826;-80
2023/01/06 06:29:04;;;;;;;0.90;0.77;;;;;10.90;101138.00;;;;10446910;28;20213;-80
2023/01/06 06:34:11;;;;;;;3.00;0.73;;;;;10.90;101151.00;;;;10462889;28;20201;-80
2023/01/06 06:39:13;;;;;;;1.13;0.80;;;;;10.90;101144.00;;;;10446316;28;20196;-80
2023/01/06 06:44:14;;;;;;;0.83;0.60;;;;;10.90;101165.00;;;;10483044;28;20742;-80
2023/01/06 06:49:16;;;;;;;0.93;0.40;;;;;10.90;101166.00;;;;10503739;28;20197;-80
2023/01/06 06:54:18;;;;;;;1.07;0.50;;;;;10.90;101160.00;;;;10483621;28;20193;-81
2023/01/06 06:59:20;;;;;;;1.17;0.50;;;;;10.90;101183.00;;;;10470648;28;20225;-79
2023/01/06 07:04:22;;;;;;;0.70;0.70;;;;;11.00;101173.00;;;;10450201;28;20189;-80
2023/01/06 07:09:24;;;;;;;0.77;0.57;;;;;11.00;101171.00;;;;10470818;28;20220;-81
2023/01/06 07:14:26;;;;;;;2.47;0.60;;;;;11.00;101192.00;;;;10474650;28;20238;-80
2023/01/06 07:19:28;;;;;;;1.20;0.60;;;;;11.00;101193.00;;;;10477094;28;20190;-80
2023/01/06 07:24:29;;;;;;;0.50;0.50;;;;;10.90;101191.00;;;;10479954;28;20201;-80
2023/01/06 07:29:31;;;;;;;2.20;0.73;;;;;10.90;101194.00;;;;10519836;28;20307;-79
2023/01/06 07:34:33;;;;;;;2.93;0.70;;;;;10.90;101207.00;;;;10513126;28;20228;-80
2023/01/06 07:39:35;;;;;;;2.60;0.60;;;;;10.80;101219.00;;;;10468457;28;20192;-80
2023/01/06 07:44:37;;;;;;;3.30;0.90;;;;;10.70;101230.00;;;;10501979;28;20248;-80
2023/01/06 07:49:39;;;;;;;1.27;0.80;;;;;10.60;101228.00;;;;10501668;28;20208;-80
2023/01/06 07:54:41;;;;;;;1.60;0.90;;;;;10.50;101229.00;;;;10511617;28;20199;-80
2023/01/06 07:59:43;;;;;;;0.80;0.70;;;;;10.50;101250.00;;;;10524258;28;20204;-80
2023/01/06 08:04:45;;;;;;;1.53;0.90;;;;;10.60;101254.00;;;;10543893;28;20639;-80
2023/01/06 08:09:46;;;;;;;0.93;0.67;;;;;10.60;101266.00;;;;10527908;28;20223;-80
2023/01/06 08:14:48;;;;;;;0.70;0.70;;;;;10.60;101263.00;;;;10484125;28;20219;-79
2023/01/06 08:19:50;;;;;;;2.37;1.23;;;;;10.50;101256.00;;;;10519857;28;20185;-80
2023/01/06 08:24:52;;;;;;;2.87;1.30;;;;;10.60;101250.00;;;;10494351;28;20212;-79
2023/01/06 08:29:54;;;;;;;2.23;1.10;;;;;10.80;101276.00;;;;10514922;28;20340;-80
2023/01/06 08:34:56;;;;;;;1.07;0.93;;;;;10.90;101269.00;;;;10499526;28;20258;-80
2023/01/06 08:39:58;;;;;;;2.73;1.30;;;;;11.10;101260.00;;;;10492764;28;20221;-78
2023/01/06 08:45:00;;;;;;;4.47;1.47;;;;;11.10;101268.00;;;;10507137;28;20219;-80
2023/01/06 08:50:02;;;;;;;4.60;1.47;;;;;11.00;101264.00;;;;10520833;28;20201;-79
2023/01/06 08:55:04;;;;;;;3.37;1.20;;;;;10.80;101261.00;;;;10506233;28;20202;-79
2023/01/06 09:00:07;;;;;;;2.50;1.33;;;;;10.90;101264.00;;;;10539675;28;20193;-80
2023/01/06 09:05:09;;;;;;;1.30;1.20;;;;;10.80;101276.00;;;;10517790;28;20199;-79
2023/01/06 09:10:11;;;;;;;2.30;1.20;;;;;10.90;101286.00;;;;10493214;28;20243;-81
2023/01/06 09:15:13;;;;;;;1.50;1.40;;;;;11.10;101306.00;;;;10509766;28;20192;-80
2023/01/06 09:20:15;;;;;;;2.07;1.60;;;;;11.30;101302.00;;;;10532900;28;20188;-80
2023/01/06 09:25:19;;;;;;;1.07;0.97;;;;;11.40;101312.00;;;;10508758;28;20221;-80
2023/01/06 09:30:24;;;;;;;2.90;1.43;;;;;11.50;101315.00;;;;10475158;28;20237;-81
2023/01/06 09:35:26;;;;;;;1.20;1.10;;;;;11.40;101324.00;;;;10464079;28;20228;-80
2023/01/06 09:40:37;;;;;;;1.30;1.20;;;;;11.40;101331.00;;;;10481817;28;20181;-80
2023/01/06 09:45:44;;;;;;;1.70;1.20;;;;;11.20;101342.00;;;;10446544;28;20201;-80
2023/01/06 09:50:51;;;;;;;1.27;1.10;;;;;11.20;101350.00;;;;10462942;28;20213;-80
2023/01/06 09:55:59;;;;;;;1.30;1.20;;;;;10.90;101362.00;;;;10472983;28;20220;-81
2023/01/06 10:01:06;;;;;;;1.90;1.70;;;;;10.80;101357.00;;;;10456872;28;20197;-81
2023/01/06 10:06:27;;;;;;;1.70;1.60;;;;;10.80;101362.00;;;;10463696;28;20198;-81
2023/01/06 10:11:35;;;;;;;2.63;1.93;;;;;10.90;101358.00;;;;10469160;28;20197;-81
2023/01/06 10:16:49;;;;;;;1.83;1.73;;;;;10.80;101355.00;;;;10473813;28;20606;-81
2023/01/06 10:22:07;;;;;;;3.07;2.23;;;;;10.90;101360.00;;;;10456888;28;20275;-81
2023/01/06 10:27:19;;;;;;;2.60;1.50;;;;;11.00;101359.00;;;;10465507;28;20307;-81
2023/01/06 10:32:25;;;;;;;2.00;1.80;;;;;11.10;101361.00;;;;10499211;28;20197;-80
2023/01/06 10:37:39;;;;;;;1.70;1.60;;;;;11.10;101352.00;;;;10510902;28;20185;-81
2023/01/06 10:42:54;;;;;;;2.50;1.90;;;;;11.20;101341.00;;;;10490778;28;20659;-82
2023/01/06 10:47:58;;;;;;;2.23;1.50;;;;;11.20;101330.00;;;;10489340;28;20195;-81
2023/01/06 10:53:00;;;;;;;1.53;1.43;;;;;11.30;101331.00;;;;10491320;28;20209;-80
2023/01/06 10:58:11;;;;;;;2.57;2.00;;;;;11.30;101318.00;;;;10515265;28;20189;-79
2023/01/06 11:03:13;;;;;;;2.10;1.90;;;;;11.50;101331.00;;;;10499414;28;20189;-80
2023/01/06 11:08:35;;;;;;;3.30;2.17;;;;;11.80;101323.00;;;;10504252;28;20228;-80
2023/01/06 11:13:38;;;;;;;1.73;1.30;;;;;11.60;101324.00;;;;10495665;28;20671;-80
2023/01/06 11:18:40;;;;;;;2.17;1.10;;;;;11.40;101319.00;;;;10511729;28;20201;-79
2023/01/06 11:23:45;;;;;;;1.63;1.40;;;;;11.50;101321.00;;;;10511689;28;20189;-79
2023/01/06 11:28:51;;;;;;;1.90;1.57;;;;;11.40;101320.00;;;;10428675;28;20222;-79
2023/01/06 11:33:57;;;;;;;2.80;1.63;;;;;11.70;101313.00;;;;10411350;28;20214;-79
2023/01/06 11:39:12;;;;;;;1.10;1.00;;;;;11.90;101312.00;;;;10427239;28;20179;-79
2023/01/06 11:44:30;;;;;;;1.57;1.20;;;;;12.10;101304.00;;;;10426901;28;20190;-79
2023/01/06 11:49:54;;;;;;;1.20;1.10;;;;;12.30;101313.00;;;;10409904;28;20209;-79
2023/01/06 11:55:06;;;;;;;1.60;0.83;;;;;12.10;101311.00;;;;10436086;28;20197;-79
2023/01/06 12:00:36;;;;;;;2.87;1.47;;;;;11.90;101300.00;;;;10467135;28;20181;-79
2023/01/06 12:05:48;;;;;;;1.70;1.60;;;;;11.60;101295.00;;;;10451136;28;20186;-79
2023/01/06 12:10:56;;;;;;;1.90;1.80;;;;;11.40;101289.00;;;;10433408;28;20259;-80
2023/01/06 12:16:06;;;;;;;1.70;1.60;;;;;11.40;101283.00;;;;10426283;28;20198;-80
2023/01/06 12:21:17;;;;;;;1.20;1.10;;;;;11.50;101276.00;;;;10392363;28;20182;-79
2023/01/06 12:26:22;;;;;;;4.30;1.40;;;;;11.50;101282.00;;;;10430833;28;20213;-79
2023/01/06 12:31:52;;;;;;;1.10;1.10;;;;;11.30;101274.00;;;;10480798;28;20227;-79
2023/01/06 12:37:03;;;;;;;1.50;1.40;;;;;11.30;101280.00;;;;10483132;28;20201;-79
2023/01/06 12:42:08;;;;;;;2.03;1.50;;;;;11.30;101273.00;;;;10482376;28;20217;-79
2023/01/06 12:47:35;;;;;;;1.87;1.77;;;;;11.50;101264.00;;;;10498754;28;20186;-79
2023/01/06 12:52:44;;;;;;;2.00;1.80;;;;;11.60;101261.00;;;;10502179;28;20215;-79
2023/01/06 12:58:52;;;;;;;2.40;2.10;;;;;11.90;101259.00;;;;10541450;28;20189;-79
2023/01/06 13:03:57;;;;;;;3.57;2.40;;;;;11.90;101261.00;;;;10423872;28;20197;-79
2023/01/06 13:09:29;;;;;;;2.83;1.90;;;;;11.90;101256.00;;;;10481004;28;20201;-79
2023/01/06 13:14:43;;;;;;;1.90;1.80;;;;;12.10;101260.00;;;;10464392;28;20189;-79
2023/01/06 13:20:01;;;;;;;2.37;2.17;;;;;12.20;101264.00;;;;10480945;28;20193;-80
2023/01/06 13:25:25;;;;;;;3.00;1.77;;;;;12.00;101261.00;;;;10480373;28;20889;-80
2023/01/06 13:30:59;;;;;;;3.43;2.10;;;;;12.00;101267.00;;;;10480382;28;20212;-79
2023/01/06 13:36:26;;;;;;;4.47;1.63;;;;;12.20;101256.00;;;;10448464;28;20193;-79
2023/01/06 13:41:33;;;;;;;2.10;1.90;;;;;12.20;101257.00;;;;10479914;28;20188;-80
2023/01/06 13:46:35;;;;;;;3.43;1.40;;;;;12.40;101252.00;;;;10447088;28;20255;-80
2023/01/06 13:51:40;;;;;;;2.50;1.80;;;;;12.60;101264.00;;;;10447772;28;20205;-80
2023/01/06 13:56:42;;;;;;;4.77;2.00;;;;;12.20;101251.00;;;;10487478;28;20679;-80
2023/01/06 14:01:45;;;;;;;2.97;2.30;;;;;12.20;101251.00;;;;10480201;28;20221;-80
2023/01/06 14:06:47;;;;;;;4.43;4.03;;;;;12.30;101257.00;;;;10463262;28;20193;-80
2023/01/06 14:11:50;;;;;;;1.77;1.67;;;;;12.30;101249.00;;;;10467647;28;20213;-80
2023/01/06 14:16:53;;;;;;;3.63;1.80;;;;;12.20;101254.00;;;;10479678;28;20648;-81
2023/01/06 14:22:15;;;;;;;3.50;2.10;;;;;12.00;101246.00;;;;10479574;28;20284;-80
2023/01/06 14:27:59;;;;;;;1.83;1.60;;;;;12.00;101240.00;;;;10500110;28;20234;-80
2023/01/06 14:33:34;;;;;;;1.50;1.40;;;;;12.00;101246.00;;;;10469403;28;20664;-80
2023/01/06 14:38:46;;;;;;;1.93;1.27;;;;;12.20;101249.00;;;;10444233;28;20220;-80
2023/01/06 14:44:05;;;;;;;1.03;1.00;;;;;12.20;101237.00;;;;10461816;28;20193;-80
2023/01/06 14:49:25;;;;;;;1.47;1.30;;;;;12.00;101237.00;;;;10494475;28;20224;-80
2023/01/06 14:54:36;;;;;;;1.50;1.17;;;;;11.90;101228.00;;;;10451166;28;20254;-80
2023/01/06 14:59:38;;;;;;;2.37;1.40;;;;;11.70;101238.00;;;;10470232;28;20202;-80
2023/01/06 15:04:42;;;;;;;2.30;1.30;;;;;11.70;101240.00;;;;10478173;28;20705;-80
2023/01/06 15:09:46;;;;;;;1.70;1.60;;;;;11.60;101238.00;;;;10462410;28;20202;-80
2023/01/06 15:14:48;;;;;;;1.60;1.50;;;;;11.50;101235.00;;;;10479497;28;20181;-80
2023/01/06 15:19:51;;;;;;;2.10;1.73;;;;;11.50;101236.00;;;;10478360;28;20201;-80
2023/01/06 15:24:53;;;;;;;2.30;1.50;;;;;11.40;101229.00;;;;10429000;28;20312;-80
2023/01/06 15:29:56;;;;;;;2.17;1.57;;;;;11.20;101225.00;;;;10461137;28;20216;-80
2023/01/06 15:34:59;;;;;;;1.90;1.70;;;;;11.20;101226.00;;;;10490334;28;20212;-80
2023/01/06 15:40:03;;;;;;;4.20;1.87;;;;;11.10;101228.00;;;;10490156;28;20652;-80
2023/01/06 15:45:06;;;;;;;2.40;1.70;;;;;11.10;101228.00;;;;10444746;28;20194;-80
2023/01/06 15:50:17;;;;;;;2.37;1.50;;;;;11.00;101224.00;;;;10457603;28;20283;-80
2023/01/06 15:55:21;;;;;;;1.60;1.50;;;;;11.00;101222.00;;;;10486620;28;20200;-80
2023/01/06 16:00:27;;;;;;;2.63;1.97;;;;;11.00;101216.00;;;;10492356;28;20203;-80
2023/01/06 16:05:38;;;;;;;4.10;2.70;;;;;11.10;101211.00;;;;10494393;28;20190;-79
2023/01/06 16:10:40;;;;;;;3.27;1.90;;;;;11.00;101210.00;;;;10467061;28;20614;-80
2023/01/06 16:16:06;;;;;;;2.43;2.23;;;;;11.00;101204.00;;;;10500545;28;20220;-80
2023/01/06 16:21:33;;;;;;;2.67;1.80;;;;;11.00;101206.00;;;;10518023;28;20186;-80
2023/01/06 16:26:45;;;;;;;1.63;1.53;;;;;11.00;101201.00;;;;10484709;28;20237;-80
2023/01/06 16:31:47;;;;;;;2.97;2.30;;;;;10.90;101213.00;;;;10491090;28;20208;-80
2023/01/06 16:36:53;;;;;;;5.57;4.00;;;;;11.00;101208.00;;;;10475221;28;20189;-80
2023/01/06 16:41:58;;;;;;;4.03;2.20;;;;;11.00;101212.00;;;;10507278;28;20177;-80
2023/01/06 16:47:01;;;;;;;2.73;2.07;;;;;11.00;101198.00;;;;10490250;28;20197;-80
2023/01/06 16:52:03;;;;;;;5.67;2.53;;;;;11.00;101205.00;;;;10507184;28;20204;-80
2023/01/06 16:57:08;;;;;;;3.80;2.37;;;;;11.00;101214.00;;;;10489725;28;20200;-80
2023/01/06 17:02:14;;;;;;;2.57;1.70;;;;;10.90;101213.00;;;;10448572;28;20190;-80
2023/01/06 17:07:16;;;;;;;2.80;2.03;;;;;10.80;101210.00;;;;10463118;28;20200;-79
2023/01/06 17:17:39;;;;;;;4.13;2.43;;;;;10.70;101205.00;;;;10465290;28;20209;-80
2023/01/06 17:22:42;;;;;;;5.63;2.63;;;;;10.70;101208.00;;;;10465020;28;20174;-81
2023/01/06 17:27:44;;;;;;;4.83;2.47;;;;;10.70;101201.00;;;;10472159;28;20708;-80
2023/01/06 17:32:47;;;;;;;2.77;2.57;;;;;10.70;101198.00;;;;10481351;28;20277;-81
2023/01/06 17:37:48;;;;;;;2.87;2.57;;;;;10.70;101208.00;;;;10448432;28;20185;-81
2023/01/06 17:43:00;;;;;;;2.93;2.70;;;;;10.70;101201.00;;;;10480253;28;20178;-80
2023/01/06 17:48:08;;;;;;;3.40;3.10;;;;;10.70;101203.00;;;;10463279;28;20206;-80
2023/01/06 17:58:43;;;;;;;4.50;3.30;;;;;10.80;101204.00;;;;10438516;28;20202;-81
2023/01/06 18:03:46;;;;;;;4.87;3.17;;;;;10.90;101199.00;;;;10438487;28;20194;-81
2023/01/06 18:09:11;;;;;;;4.50;3.40;;;;;10.80;101204.00;;;;10433264;28;20189;-81
2023/01/06 18:14:24;;;;;;;6.50;3.20;;;;;10.80;101202.00;;;;10439629;28;20702;-81
2023/01/06 18:19:36;;;;;;;4.30;3.90;;;;;10.80;101195.00;;;;10461479;28;20285;-81
2023/01/06 18:24:39;;;;;;;5.23;3.77;;;;;10.80;101201.00;;;;10469808;28;20537;-80
2023/01/06 18:29:43;;;;;;;8.03;6.00;;;;;10.70;101191.00;;;;10457292;28;20269;-81
2023/01/06 18:34:46;;;;;;;6.20;4.10;;;;;10.70;101208.00;;;;10445964;28;20209;-81
2023/01/06 18:39:49;;;;;;;5.77;4.37;;;;;10.70;101195.00;;;;10502315;28;20185;-80
2023/01/06 18:45:00;;;;;;;6.90;4.30;;;;;10.70;101201.00;;;;10486823;28;20196;-81
2023/01/06 18:50:37;;;;;;;5.60;4.10;;;;;10.60;101209.00;;;;10471159;28;20243;-81
2023/01/06 18:55:49;;;;;;;5.30;4.23;;;;;10.70;101202.00;;;;10460224;28;20205;-81
2023/01/06 19:00:57;;;;;;;5.40;4.40;;;;;10.80;101198.00;;;;10484216;28;20196;-80
2023/01/06 19:06:17;;;;;;;5.50;4.30;;;;;10.80;101198.00;;;;10462325;28;20193;-80
2023/01/06 19:11:25;;;;;;;5.40;4.23;;;;;10.70;101191.00;;;;10429181;28;20224;-81
2023/01/06 19:16:42;;;;;;;5.17;2.87;;;;;10.70;101191.00;;;;10461409;28;20216;-81
2023/01/06 19:21:44;;;;;;;5.50;3.30;;;;;10.80;101198.00;;;;10445073;28;20204;-81
2023/01/06 19:26:46;;;;;;;5.67;2.57;;;;;10.70;101198.00;;;;10469339;28;20274;-81
2023/01/06 19:31:53;;;;;;;7.40;3.30;;;;;10.70;101191.00;;;;10499839;28;20611;-81
2023/01/06 19:36:56;;;;;;;6.53;3.20;;;;;10.70;101205.00;;;;10452519;28;20200;-81
2023/01/06 19:42:21;;;;;;;3.70;3.20;;;;;10.70;101199.00;;;;10482482;28;20197;-81
2023/01/06 19:47:26;;;;;;;6.30;3.63;;;;;10.70;101192.00;;;;10436806;28;20189;-81
2023/01/06 19:52:35;;;;;;;5.43;3.40;;;;;10.70;101199.00;;;;10452052;28;20202;-81
2023/01/06 19:57:40;;;;;;;5.13;3.23;;;;;10.60;101185.00;;;;10474590;28;20231;-81
2023/01/06 20:02:44;;;;;;;4.87;3.73;;;;;10.60;101186.00;;;;10467930;28;20196;-81
2023/01/06 20:07:46;;;;;;;4.60;3.83;;;;;10.60;101190.00;;;;10467926;28;20189;-81
2023/01/06 20:12:48;;;;;;;5.40;3.53;;;;;10.60;101182.00;;;;10461298;28;20308;-81
2023/01/06 20:17:50;;;;;;;6.40;3.80;;;;;10.50;101193.00;;;;10451357;28;20529;-81
2023/01/06 20:22:52;;;;;;;6.67;3.63;;;;;10.50;101190.00;;;;10450818;28;20190;-81
2023/01/06 20:27:54;;;;;;;5.03;4.53;;;;;10.50;101188.00;;;;10484642;28;20240;-81
2023/01/06 20:32:56;;;;;;;6.07;3.80;;;;;10.50;101185.00;;;;10492796;28;20220;-81
2023/01/06 20:37:58;;;;;;;4.97;3.83;;;;;10.50;101185.00;;;;10509461;28;20277;-80
2023/01/06 20:43:00;;;;;;;5.87;3.53;;;;;10.50;101177.00;;;;10491035;28;20181;-80
2023/01/06 20:48:02;;;;;;;7.07;4.53;;;;;10.50;101183.00;;;;10492051;28;20480;-81
2023/01/06 20:53:04;;;;;;;7.33;4.00;;;;;10.50;101191.00;;;;10491655;28;20205;-80
2023/01/06 20:58:06;;;;;;;5.57;3.67;;;;;10.50;101177.00;;;;10526589;28;20834;-81
2023/01/06 21:03:07;;;;;;;7.90;4.40;;;;;10.50;101175.00;;;;10516466;28;20188;-80
2023/01/06 21:08:09;;;;;;;5.60;4.47;;;;;10.50;101169.00;;;;10532167;28;20196;-81
2023/01/06 21:13:11;;;;;;;6.43;4.47;;;;;10.40;101164.00;;;;10515286;28;20212;-80
2023/01/06 21:18:13;;;;;;;6.37;4.60;;;;;10.40;101164.00;;;;10504479;28;20207;-81
2023/01/06 21:23:15;;;;;;;4.50;4.10;;;;;10.40;101175.00;;;;10506196;28;20181;-81
2023/01/06 21:28:17;;;;;;;7.47;4.20;;;;;10.40;101173.00;;;;10484724;28;20229;-80
2023/01/06 21:33:19;;;;;;;6.17;3.80;;;;;10.40;101169.00;;;;10504288;28;20678;-80
2023/01/06 21:38:22;;;;;;;8.13;4.60;;;;;10.40;101172.00;;;;10490339;28;20640;-80
2023/01/06 21:43:24;;;;;;;5.43;3.87;;;;;10.40;101169.00;;;;10505487;28;20173;-80
2023/01/06 21:48:26;;;;;;;5.30;3.93;;;;;10.30;101163.00;;;;10482727;28;20679;-80
2023/01/06 21:53:30;;;;;;;9.50;4.07;;;;;10.40;101181.00;;;;10447471;28;20615;-80
2023/01/06 21:58:33;;;;;;;8.33;4.00;;;;;10.40;101171.00;;;;10446355;28;20205;-80
2023/01/06 22:03:35;;;;;;;5.97;4.10;;;;;10.40;101172.00;;;;10446181;28;20212;-80
2023/01/06 22:08:37;;;;;;;7.70;4.40;;;;;10.40;101159.00;;;;10449891;28;20194;-80
2023/01/06 22:13:40;;;;;;;7.93;3.83;;;;;10.30;101158.00;;;;10461905;28;20268;-80
2023/01/06 22:18:41;;;;;;;6.60;3.43;;;;;10.20;101159.00;;;;10462739;28;20296;-80
2023/01/06 22:23:43;;;;;;;5.83;3.50;;;;;10.10;101151.00;;;;10462228;28;20668;-79
2023/01/06 22:28:45;;;;;;;3.07;2.70;;;;;10.10;101151.00;;;;10463048;28;20236;-80
2023/01/06 22:33:47;;;;;;;5.87;3.50;;;;;10.10;101140.00;;;;10461847;28;20572;-80
2023/01/06 22:38:50;;;;;;;5.33;3.53;;;;;10.00;101132.00;;;;10465060;28;20258;-79
2023/01/06 22:43:52;;;;;;;4.73;3.60;;;;;10.10;101131.00;;;;10487118;28;20196;-81
2023/01/06 22:48:54;;;;;;;4.73;3.00;;;;;10.10;101127.00;;;;10486698;28;20201;-80
2023/01/06 22:53:56;;;;;;;6.20;3.73;;;;;10.00;101143.00;;;;10485820;28;20299;-80
2023/01/06 22:58:58;;;;;;;7.57;3.67;;;;;10.00;101128.00;;;;10442191;28;20201;-80
2023/01/06 23:04:02;;;;;;;5.73;3.53;;;;;10.00;101139.00;;;;10494447;28;20867;-80
2023/01/06 23:09:03;;;;;;;6.37;3.00;;;;;10.00;101131.00;;;;10477429;28;20251;-80
2023/01/06 23:14:07;;;;;;;4.37;3.20;;;;;10.00;101141.00;;;;10511683;28;20227;-80
2023/01/06 23:19:11;;;;;;;5.43;3.30;;;;;10.10;101134.00;;;;10494443;28;20208;-80
2023/01/06 23:24:13;;;;;;;5.10;3.37;;;;;10.00;101132.00;;;;10508117;28;20205;-80
2023/01/06 23:29:15;;;;;;;7.40;3.30;;;;;10.00;101133.00;;;;10469541;28;20647;-80
2023/01/06 23:34:18;;;;;;;5.43;3.37;;;;;10.10;101119.00;;;;10491273;28;20259;-80
2023/01/06 23:39:20;;;;;;;4.70;3.27;;;;;10.10;101132.00;;;;10452390;28;20201;-80
2023/01/06 23:44:21;;;;;;;7.73;3.23;;;;;10.10;101126.00;;;;10485452;28;20264;-80
2023/01/06 23:49:23;;;;;;;7.07;3.20;;;;;10.10;101123.00;;;;10471516;28;20189;-80
2023/01/06 23:54:25;;;;;;;5.37;3.03;;;;;10.10;101136.00;;;;10476446;28;20209;-80
2023/01/06 23:59:27;;;;;;;4.67;3.17;;;;;10.10;101126.00;;;;10467549;28;20197;-80
